sensor_id;sensor_type;location;lat;lon;timestamp;temperature;humidity
3136;DHT22;1578;47.658;9.922;2022-09-09T00:01:36;13.40;77.50
3136;DHT22;1578;47.658;9.922;2022-09-09T00:06:48;13.50;77.50
3136;DHT22;1578;47.658;9.922;2022-09-09T00:09:18;13.60;76.80
3136;DHT22;1578;47.658;9.922;2022-09-09T00:17:17;13.40;77.40
3136;DHT22;1578;47.658;9.922;2022-09-09T00:19:53;13.40;77.10
3136;DHT22;1578;47.658;9.922;2022-09-09T00:22:27;13.30;77.80
3136;DHT22;1578;47.658;9.922;2022-09-09T00:24:55;13.40;78.60
3136;DHT22;1578;47.658;9.922;2022-09-09T00:27:34;13.40;78.10
3136;DHT22;1578;47.658;9.922;2022-09-09T00:30:34;13.40;78.50
3136;DHT22;1578;47.658;9.922;2022-09-09T00:33:02;13.40;78.60
3136;DHT22;1578;47.658;9.922;2022-09-09T00:35:45;13.40;79.00
3136;DHT22;1578;47.658;9.922;2022-09-09T00:38:36;13.40;79.60
3136;DHT22;1578;47.658;9.922;2022-09-09T00:50:24;13.50;79.90
3136;DHT22;1578;47.658;9.922;2022-09-09T00:52:47;13.60;78.60
3136;DHT22;1578;47.658;9.922;2022-09-09T00:57:57;13.60;78.30
3136;DHT22;1578;47.658;9.922;2022-09-09T01:00:29;13.60;78.60
3136;DHT22;1578;47.658;9.922;2022-09-09T01:03:18;13.60;78.30
3136;DHT22;1578;47.658;9.922;2022-09-09T01:28:00;13.60;77.60
3136;DHT22;1578;47.658;9.922;2022-09-09T01:30:28;13.70;75.50
3136;DHT22;1578;47.658;9.922;2022-09-09T01:32:56;13.70;74.40
3136;DHT22;1578;47.658;9.922;2022-09-09T01:35:40;13.70;73.20
3136;DHT22;1578;47.658;9.922;2022-09-09T01:38:08;13.70;73.60
3136;DHT22;1578;47.658;9.922;2022-09-09T01:40:34;13.70;73.20
3136;DHT22;1578;47.658;9.922;2022-09-09T01:43:01;13.60;74.00
3136;DHT22;1578;47.658;9.922;2022-09-09T01:45:26;13.60;75.50
3136;DHT22;1578;47.658;9.922;2022-09-09T01:47:52;13.50;76.70
3136;DHT22;1578;47.658;9.922;2022-09-09T01:50:20;13.50;77.50
3136;DHT22;1578;47.658;9.922;2022-09-09T01:52:48;13.40;77.90
3136;DHT22;1578;47.658;9.922;2022-09-09T01:55:16;13.30;78.50
3136;DHT22;1578;47.658;9.922;2022-09-09T01:57:56;13.30;78.30
3136;DHT22;1578;47.658;9.922;2022-09-09T02:00:25;13.20;78.00
3136;DHT22;1578;47.658;9.922;2022-09-09T02:03:09;13.20;77.80
3136;DHT22;1578;47.658;9.922;2022-09-09T02:05:43;13.20;76.00
3136;DHT22;1578;47.658;9.922;2022-09-09T02:08:17;13.20;76.80
3136;DHT22;1578;47.658;9.922;2022-09-09T02:11:09;13.20;74.70
3136;DHT22;1578;47.658;9.922;2022-09-09T02:13:38;13.30;75.20
3136;DHT22;1578;47.658;9.922;2022-09-09T02:16:10;13.30;74.30
3136;DHT22;1578;47.658;9.922;2022-09-09T02:21:19;13.00;76.70
3136;DHT22;1578;47.658;9.922;2022-09-09T02:23:47;12.90;78.60
3136;DHT22;1578;47.658;9.922;2022-09-09T02:26:14;12.70;79.10
3136;DHT22;1578;47.658;9.922;2022-09-09T02:28:46;12.70;79.80
3136;DHT22;1578;47.658;9.922;2022-09-09T02:31:18;12.70;79.40
3136;DHT22;1578;47.658;9.922;2022-09-09T02:33:51;12.70;79.40
3136;DHT22;1578;47.658;9.922;2022-09-09T02:36:19;12.60;79.90
3136;DHT22;1578;47.658;9.922;2022-09-09T02:38:47;12.60;80.40
3136;DHT22;1578;47.658;9.922;2022-09-09T02:41:24;12.60;81.20
3136;DHT22;1578;47.658;9.922;2022-09-09T02:43:51;12.60;81.80
3136;DHT22;1578;47.658;9.922;2022-09-09T02:49:15;12.50;83.00
3136;DHT22;1578;47.658;9.922;2022-09-09T02:52:02;12.50;83.10
3136;DHT22;1578;47.658;9.922;2022-09-09T02:54:35;12.50;83.70
3136;DHT22;1578;47.658;9.922;2022-09-09T02:57:32;12.60;83.90
3136;DHT22;1578;47.658;9.922;2022-09-09T02:59:59;12.60;82.80
3136;DHT22;1578;47.658;9.922;2022-09-09T03:02:25;12.70;82.60
3136;DHT22;1578;47.658;9.922;2022-09-09T03:04:51;12.70;80.90
3136;DHT22;1578;47.658;9.922;2022-09-09T03:07:20;12.80;80.80
3136;DHT22;1578;47.658;9.922;2022-09-09T03:09:46;12.80;79.40
3136;DHT22;1578;47.658;9.922;2022-09-09T03:12:12;12.90;79.60
3136;DHT22;1578;47.658;9.922;2022-09-09T03:14:38;12.90;78.80
3136;DHT22;1578;47.658;9.922;2022-09-09T03:17:05;12.80;79.00
3136;DHT22;1578;47.658;9.922;2022-09-09T03:19:31;12.70;80.30
3136;DHT22;1578;47.658;9.922;2022-09-09T03:21:57;12.80;80.60
3136;DHT22;1578;47.658;9.922;2022-09-09T03:24:24;12.80;80.70
3136;DHT22;1578;47.658;9.922;2022-09-09T03:26:50;12.80;81.00
3136;DHT22;1578;47.658;9.922;2022-09-09T03:29:16;12.70;80.40
3136;DHT22;1578;47.658;9.922;2022-09-09T03:31:42;12.70;81.30
3136;DHT22;1578;47.658;9.922;2022-09-09T11:10:58;16.50;77.80
3136;DHT22;1578;47.658;9.922;2022-09-09T11:16:30;17.20;66.50
3136;DHT22;1578;47.658;9.922;2022-09-09T11:19:56;17.60;64.40
3136;DHT22;1578;47.658;9.922;2022-09-09T11:22:01;17.80;60.50
3136;DHT22;1578;47.658;9.922;2022-09-09T11:25:09;17.90;55.30
3136;DHT22;1578;47.658;9.922;2022-09-09T11:30:34;18.10;54.80
3136;DHT22;1578;47.658;9.922;2022-09-09T11:36:10;18.20;53.00
3136;DHT22;1578;47.658;9.922;2022-09-09T11:38:51;18.40;54.20
3136;DHT22;1578;47.658;9.922;2022-09-09T11:41:18;18.70;45.80
3136;DHT22;1578;47.658;9.922;2022-09-09T11:43:51;18.60;44.80
3136;DHT22;1578;47.658;9.922;2022-09-09T11:46:19;18.70;43.70
3136;DHT22;1578;47.658;9.922;2022-09-09T11:48:58;18.80;42.70
3136;DHT22;1578;47.658;9.922;2022-09-09T11:51:26;18.90;43.40
3136;DHT22;1578;47.658;9.922;2022-09-09T11:56:45;19.00;47.10
3136;DHT22;1578;47.658;9.922;2022-09-09T11:59:25;19.20;46.00
3136;DHT22;1578;47.658;9.922;2022-09-09T12:02:14;19.40;43.00
3136;DHT22;1578;47.658;9.922;2022-09-09T12:04:54;19.50;40.40
3136;DHT22;1578;47.658;9.922;2022-09-09T12:07:37;19.70;42.90
3136;DHT22;1578;47.658;9.922;2022-09-09T12:10:27;19.50;41.60
3136;DHT22;1578;47.658;9.922;2022-09-09T12:12:54;19.30;37.80
3136;DHT22;1578;47.658;9.922;2022-09-09T12:15:28;19.10;39.90
3136;DHT22;1578;47.658;9.922;2022-09-09T12:17:57;18.50;43.80
3136;DHT22;1578;47.658;9.922;2022-09-09T12:20:33;18.00;51.70
3136;DHT22;1578;47.658;9.922;2022-09-09T12:26:05;17.10;61.80
3136;DHT22;1578;47.658;9.922;2022-09-09T12:29:04;17.00;65.90
3136;DHT22;1578;47.658;9.922;2022-09-09T12:34:18;17.00;71.80
3136;DHT22;1578;47.658;9.922;2022-09-09T12:37:03;17.10;69.80
3136;DHT22;1578;47.658;9.922;2022-09-09T12:39:37;17.10;67.10
3136;DHT22;1578;47.658;9.922;2022-09-09T12:42:16;17.20;66.80
3136;DHT22;1578;47.658;9.922;2022-09-09T12:44:54;17.30;69.10
3136;DHT22;1578;47.658;9.922;2022-09-09T12:47:27;17.40;67.40
3136;DHT22;1578;47.658;9.922;2022-09-09T12:49:54;17.40;72.10
3136;DHT22;1578;47.658;9.922;2022-09-09T12:52:34;17.60;69.70
3136;DHT22;1578;47.658;9.922;2022-09-09T12:55:02;17.60;70.90
3136;DHT22;1578;47.658;9.922;2022-09-09T12:57:35;17.70;66.70
3136;DHT22;1578;47.658;9.922;2022-09-09T13:00:07;17.80;63.30
3136;DHT22;1578;47.658;9.922;2022-09-09T13:02:55;17.90;63.10
3136;DHT22;1578;47.658;9.922;2022-09-09T13:05:26;17.90;62.00
3136;DHT22;1578;47.658;9.922;2022-09-09T13:08:00;17.90;58.70
3136;DHT22;1578;47.658;9.922;2022-09-09T13:10:29;17.80;63.00
3136;DHT22;1578;47.658;9.922;2022-09-09T13:12:55;17.80;63.90
3136;DHT22;1578;47.658;9.922;2022-09-09T13:15:24;17.90;63.10
3136;DHT22;1578;47.658;9.922;2022-09-09T13:18:06;17.80;67.70
3136;DHT22;1578;47.658;9.922;2022-09-09T13:20:36;17.90;69.50
3136;DHT22;1578;47.658;9.922;2022-09-09T13:23:02;18.00;69.40
3136;DHT22;1578;47.658;9.922;2022-09-09T13:25:29;18.20;67.00
3136;DHT22;1578;47.658;9.922;2022-09-09T13:28:03;18.40;59.40
3136;DHT22;1578;47.658;9.922;2022-09-09T13:30:34;18.40;61.90
3136;DHT22;1578;47.658;9.922;2022-09-09T13:36:06;18.70;63.50
3136;DHT22;1578;47.658;9.922;2022-09-09T13:38:40;18.90;58.80
3136;DHT22;1578;47.658;9.922;2022-09-09T13:41:08;19.00;60.00
3136;DHT22;1578;47.658;9.922;2022-09-09T13:43:43;19.10;52.30
3136;DHT22;1578;47.658;9.922;2022-09-09T13:46:35;19.20;51.10
3136;DHT22;1578;47.658;9.922;2022-09-09T13:49:18;19.20;59.50
3136;DHT22;1578;47.658;9.922;2022-09-09T13:51:47;19.30;51.20
3136;DHT22;1578;47.658;9.922;2022-09-09T13:54:17;19.30;45.50
3136;DHT22;1578;47.658;9.922;2022-09-09T13:56:43;19.30;40.50
3136;DHT22;1578;47.658;9.922;2022-09-09T13:59:12;19.20;46.20
3136;DHT22;1578;47.658;9.922;2022-09-09T14:01:37;19.20;42.40
3136;DHT22;1578;47.658;9.922;2022-09-09T14:04:03;19.30;53.90
3136;DHT22;1578;47.658;9.922;2022-09-09T14:06:32;19.20;50.90
3136;DHT22;1578;47.658;9.922;2022-09-09T14:08:58;19.40;41.20
3136;DHT22;1578;47.658;9.922;2022-09-09T14:11:23;19.60;45.70
3136;DHT22;1578;47.658;9.922;2022-09-09T14:13:49;19.60;42.00
3136;DHT22;1578;47.658;9.922;2022-09-09T14:16:18;19.50;32.30
3136;DHT22;1578;47.658;9.922;2022-09-09T14:18:44;19.30;33.80
3136;DHT22;1578;47.658;9.922;2022-09-09T14:21:11;19.20;36.50
3136;DHT22;1578;47.658;9.922;2022-09-09T14:23:37;19.30;39.10
3136;DHT22;1578;47.658;9.922;2022-09-09T14:26:07;19.30;43.90
3136;DHT22;1578;47.658;9.922;2022-09-09T14:28:33;19.40;47.50
3136;DHT22;1578;47.658;9.922;2022-09-09T14:31:00;19.50;40.70
3136;DHT22;1578;47.658;9.922;2022-09-09T14:33:27;19.70;39.90
3136;DHT22;1578;47.658;9.922;2022-09-09T14:35:59;19.80;40.20
3136;DHT22;1578;47.658;9.922;2022-09-09T14:38:28;20.00;36.80
3136;DHT22;1578;47.658;9.922;2022-09-09T14:40:54;20.10;35.10
3136;DHT22;1578;47.658;9.922;2022-09-09T14:43:19;20.10;34.60
3136;DHT22;1578;47.658;9.922;2022-09-09T14:45:46;20.10;31.80
3136;DHT22;1578;47.658;9.922;2022-09-09T14:48:14;20.20;34.90
3136;DHT22;1578;47.658;9.922;2022-09-09T14:50:40;20.30;34.30
3136;DHT22;1578;47.658;9.922;2022-09-09T14:53:07;20.30;35.00
3136;DHT22;1578;47.658;9.922;2022-09-09T14:55:34;20.30;38.10
3136;DHT22;1578;47.658;9.922;2022-09-09T14:58:00;20.40;31.50
3136;DHT22;1578;47.658;9.922;2022-09-09T15:00:26;20.40;33.60
3136;DHT22;1578;47.658;9.922;2022-09-09T15:02:53;20.40;31.60
3136;DHT22;1578;47.658;9.922;2022-09-09T15:05:19;20.50;30.20
3136;DHT22;1578;47.658;9.922;2022-09-09T15:07:45;20.50;40.20
3136;DHT22;1578;47.658;9.922;2022-09-09T15:10:10;20.60;33.60
3136;DHT22;1578;47.658;9.922;2022-09-09T15:12:36;20.50;34.50
3136;DHT22;1578;47.658;9.922;2022-09-09T15:15:04;20.40;37.10
3136;DHT22;1578;47.658;9.922;2022-09-09T15:17:30;20.40;31.50
3136;DHT22;1578;47.658;9.922;2022-09-09T15:19:55;20.30;28.70
3136;DHT22;1578;47.658;9.922;2022-09-09T15:22:21;20.20;31.40
3136;DHT22;1578;47.658;9.922;2022-09-09T15:24:47;20.10;35.30
3136;DHT22;1578;47.658;9.922;2022-09-09T15:27:13;20.10;34.50
3136;DHT22;1578;47.658;9.922;2022-09-09T15:29:40;20.10;35.50
3136;DHT22;1578;47.658;9.922;2022-09-09T15:32:07;20.10;33.10
3136;DHT22;1578;47.658;9.922;2022-09-09T15:34:32;20.00;36.70
3136;DHT22;1578;47.658;9.922;2022-09-09T15:36:58;20.00;36.60
3136;DHT22;1578;47.658;9.922;2022-09-09T15:39:25;20.10;32.60
3136;DHT22;1578;47.658;9.922;2022-09-09T15:41:51;20.20;32.80
3136;DHT22;1578;47.658;9.922;2022-09-09T15:44:16;20.30;31.50
3136;DHT22;1578;47.658;9.922;2022-09-09T15:46:50;20.40;31.50
3136;DHT22;1578;47.658;9.922;2022-09-09T15:49:21;20.40;30.20
3136;DHT22;1578;47.658;9.922;2022-09-09T15:51:57;20.40;33.00
3136;DHT22;1578;47.658;9.922;2022-09-09T15:54:24;20.40;35.50
3136;DHT22;1578;47.658;9.922;2022-09-09T15:56:56;20.40;33.50
3136;DHT22;1578;47.658;9.922;2022-09-09T15:59:22;20.40;28.90
3136;DHT22;1578;47.658;9.922;2022-09-09T16:01:48;20.30;35.00
3136;DHT22;1578;47.658;9.922;2022-09-09T16:04:18;20.30;37.40
3136;DHT22;1578;47.658;9.922;2022-09-09T16:06:54;20.30;33.00
3136;DHT22;1578;47.658;9.922;2022-09-09T16:09:20;20.40;35.10
3136;DHT22;1578;47.658;9.922;2022-09-09T16:11:46;20.30;34.30
3136;DHT22;1578;47.658;9.922;2022-09-09T16:14:13;20.20;34.60
3136;DHT22;1578;47.658;9.922;2022-09-09T16:16:41;20.00;38.60
3136;DHT22;1578;47.658;9.922;2022-09-09T16:19:09;19.90;39.70
3136;DHT22;1578;47.658;9.922;2022-09-09T16:21:40;19.70;39.50
3136;DHT22;1578;47.658;9.922;2022-09-09T16:24:09;19.60;40.50
3136;DHT22;1578;47.658;9.922;2022-09-09T16:26:37;19.50;40.70
3136;DHT22;1578;47.658;9.922;2022-09-09T16:29:03;19.40;40.80
3136;DHT22;1578;47.658;9.922;2022-09-09T16:31:30;19.20;40.70
3136;DHT22;1578;47.658;9.922;2022-09-09T16:33:57;19.10;41.80
3136;DHT22;1578;47.658;9.922;2022-09-09T16:36:25;19.10;42.00
3136;DHT22;1578;47.658;9.922;2022-09-09T16:38:53;19.00;44.00
3136;DHT22;1578;47.658;9.922;2022-09-09T16:41:21;18.90;44.30
3136;DHT22;1578;47.658;9.922;2022-09-09T16:43:47;18.80;45.40
3136;DHT22;1578;47.658;9.922;2022-09-09T16:46:18;18.80;47.80
3136;DHT22;1578;47.658;9.922;2022-09-09T16:48:45;18.70;50.90
3136;DHT22;1578;47.658;9.922;2022-09-09T16:51:14;18.60;51.30
3136;DHT22;1578;47.658;9.922;2022-09-09T16:53:40;18.30;56.40
3136;DHT22;1578;47.658;9.922;2022-09-09T16:56:10;18.10;58.00
3136;DHT22;1578;47.658;9.922;2022-09-09T16:58:36;18.00;60.20
3136;DHT22;1578;47.658;9.922;2022-09-09T17:01:03;18.00;60.20
3136;DHT22;1578;47.658;9.922;2022-09-09T17:03:29;17.90;60.30
3136;DHT22;1578;47.658;9.922;2022-09-09T17:05:55;17.90;59.30
3136;DHT22;1578;47.658;9.922;2022-09-09T17:08:22;18.00;59.00
3136;DHT22;1578;47.658;9.922;2022-09-09T17:10:48;17.90;59.30
3136;DHT22;1578;47.658;9.922;2022-09-09T17:13:13;17.80;59.70
3136;DHT22;1578;47.658;9.922;2022-09-09T17:15:41;17.80;59.70
3136;DHT22;1578;47.658;9.922;2022-09-09T17:18:09;17.80;58.90
3136;DHT22;1578;47.658;9.922;2022-09-09T17:20:40;17.70;60.20
3136;DHT22;1578;47.658;9.922;2022-09-09T17:23:07;17.70;61.20
3136;DHT22;1578;47.658;9.922;2022-09-09T17:25:33;17.70;60.70
3136;DHT22;1578;47.658;9.922;2022-09-09T17:27:59;17.70;59.70
3136;DHT22;1578;47.658;9.922;2022-09-09T17:30:25;17.70;59.80
3136;DHT22;1578;47.658;9.922;2022-09-09T17:32:51;17.60;59.60
3136;DHT22;1578;47.658;9.922;2022-09-09T17:35:17;17.60;59.30
3136;DHT22;1578;47.658;9.922;2022-09-09T17:37:43;17.50;59.00
3136;DHT22;1578;47.658;9.922;2022-09-09T17:40:10;17.60;58.00
3136;DHT22;1578;47.658;9.922;2022-09-09T17:42:36;17.50;58.00
3136;DHT22;1578;47.658;9.922;2022-09-09T17:45:02;17.50;57.40
3136;DHT22;1578;47.658;9.922;2022-09-09T17:47:27;17.50;56.50
3136;DHT22;1578;47.658;9.922;2022-09-09T17:49:53;17.30;57.00
3136;DHT22;1578;47.658;9.922;2022-09-09T17:52:19;17.20;57.70
3136;DHT22;1578;47.658;9.922;2022-09-09T17:54:45;17.10;57.20
3136;DHT22;1578;47.658;9.922;2022-09-09T17:57:11;17.10;57.20
3136;DHT22;1578;47.658;9.922;2022-09-09T17:59:36;17.00;57.50
3136;DHT22;1578;47.658;9.922;2022-09-09T18:02:02;16.90;57.50
3136;DHT22;1578;47.658;9.922;2022-09-09T18:04:30;16.90;57.50
3136;DHT22;1578;47.658;9.922;2022-09-09T18:06:56;16.80;58.00
3136;DHT22;1578;47.658;9.922;2022-09-09T18:09:24;16.70;57.30
3136;DHT22;1578;47.658;9.922;2022-09-09T18:11:53;16.60;57.20
3136;DHT22;1578;47.658;9.922;2022-09-09T18:14:21;16.50;57.50
3136;DHT22;1578;47.658;9.922;2022-09-09T18:16:48;16.40;57.70
3136;DHT22;1578;47.658;9.922;2022-09-09T18:19:17;16.40;58.20
3136;DHT22;1578;47.658;9.922;2022-09-09T18:21:43;16.30;58.40
3136;DHT22;1578;47.658;9.922;2022-09-09T18:24:10;16.20;59.30
3136;DHT22;1578;47.658;9.922;2022-09-09T18:26:37;16.20;60.30
3136;DHT22;1578;47.658;9.922;2022-09-09T18:29:09;16.10;61.40
3136;DHT22;1578;47.658;9.922;2022-09-09T18:31:36;16.00;61.60
3136;DHT22;1578;47.658;9.922;2022-09-09T18:34:06;15.90;61.20
3136;DHT22;1578;47.658;9.922;2022-09-09T18:36:41;15.80;61.10
3136;DHT22;1578;47.658;9.922;2022-09-09T18:39:10;15.70;61.00
3136;DHT22;1578;47.658;9.922;2022-09-09T18:41:38;15.60;63.00
3136;DHT22;1578;47.658;9.922;2022-09-09T18:44:09;15.60;64.80
3136;DHT22;1578;47.658;9.922;2022-09-09T18:46:35;15.60;65.60
3136;DHT22;1578;47.658;9.922;2022-09-09T18:49:02;15.50;65.50
3136;DHT22;1578;47.658;9.922;2022-09-09T18:51:29;15.50;67.00
3136;DHT22;1578;47.658;9.922;2022-09-09T18:54:01;15.50;67.20
3136;DHT22;1578;47.658;9.922;2022-09-09T18:56:28;15.50;67.40
3136;DHT22;1578;47.658;9.922;2022-09-09T18:58:58;15.50;65.70
3136;DHT22;1578;47.658;9.922;2022-09-09T19:01:25;15.40;69.50
3136;DHT22;1578;47.658;9.922;2022-09-09T19:03:51;15.40;70.20
3136;DHT22;1578;47.658;9.922;2022-09-09T19:06:23;15.20;73.80
3136;DHT22;1578;47.658;9.922;2022-09-09T19:08:51;14.70;78.70
3136;DHT22;1578;47.658;9.922;2022-09-09T19:11:21;14.60;80.10
3136;DHT22;1578;47.658;9.922;2022-09-09T19:13:56;14.10;87.50
3136;DHT22;1578;47.658;9.922;2022-09-09T19:16:24;14.00;90.90
3136;DHT22;1578;47.658;9.922;2022-09-09T19:18:50;13.70;92.00
3136;DHT22;1578;47.658;9.922;2022-09-09T19:21:29;13.70;91.50
3136;DHT22;1578;47.658;9.922;2022-09-09T19:23:57;13.60;90.40
3136;DHT22;1578;47.658;9.922;2022-09-09T19:26:25;13.60;86.60
3136;DHT22;1578;47.658;9.922;2022-09-09T19:28:51;13.50;85.40
3136;DHT22;1578;47.658;9.922;2022-09-09T19:31:18;13.50;87.00
3136;DHT22;1578;47.658;9.922;2022-09-09T19:33:45;13.50;90.30
3136;DHT22;1578;47.658;9.922;2022-09-09T19:36:15;13.60;91.80
3136;DHT22;1578;47.658;9.922;2022-09-09T19:38:42;13.70;92.00
3136;DHT22;1578;47.658;9.922;2022-09-09T19:41:17;13.70;91.30
3136;DHT22;1578;47.658;9.922;2022-09-09T19:43:44;13.70;91.70
3136;DHT22;1578;47.658;9.922;2022-09-09T19:46:12;13.70;91.30
3136;DHT22;1578;47.658;9.922;2022-09-09T19:48:39;13.70;91.70
3136;DHT22;1578;47.658;9.922;2022-09-09T19:51:16;13.70;90.00
3136;DHT22;1578;47.658;9.922;2022-09-09T19:53:45;13.60;86.30
3136;DHT22;1578;47.658;9.922;2022-09-09T19:56:11;13.50;85.00
3136;DHT22;1578;47.658;9.922;2022-09-09T19:58:39;13.50;85.10
3136;DHT22;1578;47.658;9.922;2022-09-09T20:03:31;13.50;86.50
3136;DHT22;1578;47.658;9.922;2022-09-09T20:05:59;13.40;85.20
3136;DHT22;1578;47.658;9.922;2022-09-09T20:08:24;13.40;87.50
3136;DHT22;1578;47.658;9.922;2022-09-09T20:10:54;13.50;88.50
3136;DHT22;1578;47.658;9.922;2022-09-09T20:13:20;13.60;86.60
3136;DHT22;1578;47.658;9.922;2022-09-09T20:15:58;13.50;86.10
3136;DHT22;1578;47.658;9.922;2022-09-09T20:18:29;13.60;87.50
3136;DHT22;1578;47.658;9.922;2022-09-09T20:21:02;13.60;87.20
3136;DHT22;1578;47.658;9.922;2022-09-09T20:23:28;13.60;86.60
3136;DHT22;1578;47.658;9.922;2022-09-09T20:25:54;13.70;85.70
3136;DHT22;1578;47.658;9.922;2022-09-09T20:28:20;13.70;84.10
3136;DHT22;1578;47.658;9.922;2022-09-09T20:30:47;13.70;84.40
3136;DHT22;1578;47.658;9.922;2022-09-09T20:33:13;13.60;83.90
3136;DHT22;1578;47.658;9.922;2022-09-09T20:35:40;13.70;83.90
3136;DHT22;1578;47.658;9.922;2022-09-09T20:38:05;13.70;83.70
3136;DHT22;1578;47.658;9.922;2022-09-09T20:40:35;13.60;84.70
3136;DHT22;1578;47.658;9.922;2022-09-09T20:43:02;13.60;85.70
3136;DHT22;1578;47.658;9.922;2022-09-09T20:45:29;13.60;86.60
3136;DHT22;1578;47.658;9.922;2022-09-09T20:47:55;13.50;86.50
3136;DHT22;1578;47.658;9.922;2022-09-09T20:50:22;13.50;86.50
3136;DHT22;1578;47.658;9.922;2022-09-09T20:52:48;13.60;86.60
3136;DHT22;1578;47.658;9.922;2022-09-09T20:55:13;13.60;87.40
3136;DHT22;1578;47.658;9.922;2022-09-09T20:57:39;13.60;86.50
3136;DHT22;1578;47.658;9.922;2022-09-09T21:00:05;13.60;86.60
3136;DHT22;1578;47.658;9.922;2022-09-09T21:02:32;13.70;86.40
3136;DHT22;1578;47.658;9.922;2022-09-09T21:04:58;13.70;84.40
3136;DHT22;1578;47.658;9.922;2022-09-09T21:07:26;13.70;83.70
3136;DHT22;1578;47.658;9.922;2022-09-09T21:09:51;13.60;85.00
3136;DHT22;1578;47.658;9.922;2022-09-09T21:12:17;13.50;86.50
3136;DHT22;1578;47.658;9.922;2022-09-09T21:14:43;13.50;86.50
3136;DHT22;1578;47.658;9.922;2022-09-09T21:17:08;13.60;85.40
3136;DHT22;1578;47.658;9.922;2022-09-09T21:19:34;13.60;86.00
3136;DHT22;1578;47.658;9.922;2022-09-09T21:22:00;13.60;85.80
3136;DHT22;1578;47.658;9.922;2022-09-09T21:24:25;13.60;85.90
3136;DHT22;1578;47.658;9.922;2022-09-09T21:26:51;13.60;85.40
3136;DHT22;1578;47.658;9.922;2022-09-09T21:29:18;13.60;84.70
3136;DHT22;1578;47.658;9.922;2022-09-09T21:31:44;13.60;85.10
3136;DHT22;1578;47.658;9.922;2022-09-09T21:34:10;13.60;85.10
3136;DHT22;1578;47.658;9.922;2022-09-09T21:36:37;13.60;84.70
3136;DHT22;1578;47.658;9.922;2022-09-09T21:39:03;13.60;84.50
3136;DHT22;1578;47.658;9.922;2022-09-09T21:41:29;13.60;84.30
3136;DHT22;1578;47.658;9.922;2022-09-09T21:43:54;13.70;84.30
3136;DHT22;1578;47.658;9.922;2022-09-09T21:46:21;13.70;83.60
3136;DHT22;1578;47.658;9.922;2022-09-09T21:48:47;13.70;83.50
3136;DHT22;1578;47.658;9.922;2022-09-09T21:51:15;13.70;83.50
3136;DHT22;1578;47.658;9.922;2022-09-09T21:53:41;13.70;83.90
3136;DHT22;1578;47.658;9.922;2022-09-09T21:56:16;13.60;84.10
3136;DHT22;1578;47.658;9.922;2022-09-09T21:58:43;13.70;83.50
3136;DHT22;1578;47.658;9.922;2022-09-09T22:01:14;13.60;84.70
3136;DHT22;1578;47.658;9.922;2022-09-09T22:03:41;13.60;85.20
3136;DHT22;1578;47.658;9.922;2022-09-09T22:06:12;13.70;84.70
3136;DHT22;1578;47.658;9.922;2022-09-09T22:08:38;13.70;83.80
3136;DHT22;1578;47.658;9.922;2022-09-09T22:11:09;13.60;85.80
3136;DHT22;1578;47.658;9.922;2022-09-09T22:13:36;13.60;85.80
3136;DHT22;1578;47.658;9.922;2022-09-09T22:16:04;13.50;86.50
3136;DHT22;1578;47.658;9.922;2022-09-09T22:18:30;13.60;86.90
3136;DHT22;1578;47.658;9.922;2022-09-09T22:20:57;13.50;86.50
3136;DHT22;1578;47.658;9.922;2022-09-09T22:23:24;13.50;87.70
3136;DHT22;1578;47.658;9.922;2022-09-09T22:25:49;13.40;88.50
3136;DHT22;1578;47.658;9.922;2022-09-09T22:28:15;13.50;88.70
3136;DHT22;1578;47.658;9.922;2022-09-09T22:30:41;13.50;89.00
3136;DHT22;1578;47.658;9.922;2022-09-09T22:33:07;13.50;88.60
3136;DHT22;1578;47.658;9.922;2022-09-09T22:35:43;13.50;88.40
3136;DHT22;1578;47.658;9.922;2022-09-09T22:38:11;13.40;89.00
3136;DHT22;1578;47.658;9.922;2022-09-09T22:40:38;13.50;90.00
3136;DHT22;1578;47.658;9.922;2022-09-09T22:43:14;13.50;89.20
3136;DHT22;1578;47.658;9.922;2022-09-09T22:45:42;13.50;89.10
3136;DHT22;1578;47.658;9.922;2022-09-09T22:48:08;13.40;89.10
3136;DHT22;1578;47.658;9.922;2022-09-09T22:50:34;13.50;89.20
3136;DHT22;1578;47.658;9.922;2022-09-09T22:53:04;13.40;88.80
3136;DHT22;1578;47.658;9.922;2022-09-09T22:55:30;13.50;89.40
3136;DHT22;1578;47.658;9.922;2022-09-09T22:57:57;13.50;89.40
3136;DHT22;1578;47.658;9.922;2022-09-09T23:00:24;13.50;89.90
3136;DHT22;1578;47.658;9.922;2022-09-09T23:02:50;13.50;89.30
3136;DHT22;1578;47.658;9.922;2022-09-09T23:05:19;13.50;90.20
3136;DHT22;1578;47.658;9.922;2022-09-09T23:07:47;13.40;89.80
3136;DHT22;1578;47.658;9.922;2022-09-09T23:10:13;13.50;90.10
3136;DHT22;1578;47.658;9.922;2022-09-09T23:12:39;13.50;89.40
3136;DHT22;1578;47.658;9.922;2022-09-09T23:15:06;13.50;89.80
3136;DHT22;1578;47.658;9.922;2022-09-09T23:17:39;13.50;90.30
3136;DHT22;1578;47.658;9.922;2022-09-09T23:20:07;13.50;90.00
3136;DHT22;1578;47.658;9.922;2022-09-09T23:22:35;13.70;87.60
3136;DHT22;1578;47.658;9.922;2022-09-09T23:25:03;13.60;86.60
3136;DHT22;1578;47.658;9.922;2022-09-09T23:27:30;13.60;88.20
3136;DHT22;1578;47.658;9.922;2022-09-09T23:29:56;13.60;88.30
3136;DHT22;1578;47.658;9.922;2022-09-09T23:32:25;13.60;88.50
3136;DHT22;1578;47.658;9.922;2022-09-09T23:34:50;13.60;89.60
3136;DHT22;1578;47.658;9.922;2022-09-09T23:37:16;13.60;88.70
3136;DHT22;1578;47.658;9.922;2022-09-09T23:39:43;13.60;88.70
3136;DHT22;1578;47.658;9.922;2022-09-09T23:42:10;13.60;88.70
3136;DHT22;1578;47.658;9.922;2022-09-09T23:44:36;13.70;89.90
3136;DHT22;1578;47.658;9.922;2022-09-09T23:47:03;13.70;89.10
3136;DHT22;1578;47.658;9.922;2022-09-09T23:49:30;13.70;87.50
3136;DHT22;1578;47.658;9.922;2022-09-09T23:51:58;13.80;87.50
3136;DHT22;1578;47.658;9.922;2022-09-09T23:54:24;13.80;86.30
